Billingsport, New Jersey
Current Conditions -  °F | °C
As of 9:54 PM on Saturday 24 Jan 2015 (Local Time) from KPHL Reporting Station
Few Clouds Few Clouds  
Wind Chill: 27°   Ceiling: Unl
Heat Index: 37°   Visibility: 10mi
Dew Point: 25°   Wind: 17mph
Humidity: 62%   Direction: 280°W
Pressure: 29.55"   Gusts: 28mph
Location:  39.8326°N, 75.2069°W
Report Text: KPHL 250254Z 28015G24KT 10SM FEW080 03/M04 A2955 RMK AO2 SLP006 T00281039 53026
Loading
Personal Weather Stations






























Interactive Weather Map New forecast layout! Learn more

10-Day Weather Forecast

Advertisements
Track Severe Weather on mobile